Time,TemperatureF,DewpointF,PressureIn,WindDirection,WindDirectionDegrees,WindSpeedMPH,WindSpeedGustMPH,Humidity,HourlyPrecipIn,Conditions,Clouds,dailyrainin,SoftwareType,DateUTC
2013-06-19 00:09:00,59.4,58.0,29.82,South,169,0.0,0.0,96,0.00,,,0.00,weatherlink.com 1.10,2013-06-19 04:09:00,
2013-06-19 00:24:00,59.4,58.0,29.82,South,169,0.0,0.0,95,0.00,,,0.00,weatherlink.com 1.10,2013-06-19 04:24:00,
2013-06-19 00:39:00,59.4,58.0,29.82,South,169,0.0,0.0,96,0.00,,,0.00,weatherlink.com 1.10,2013-06-19 04:39:00,
2013-06-19 00:54:00,59.4,58.0,29.82,South,169,0.0,0.0,95,0.00,,,0.00,weatherlink.com 1.10,2013-06-19 04:54:00,
2013-06-19 01:09:00,59.3,58.0,29.82,South,169,0.0,0.0,96,0.00,,,0.00,weatherlink.com 1.10,2013-06-19 05:09:00,
2013-06-19 01:24:00,59.4,58.0,29.82,South,169,0.0,0.0,96,0.00,,,0.00,weatherlink.com 1.10,2013-06-19 05:24:00,
2013-06-19 01:39:00,59.4,58.0,29.82,South,169,0.0,1.0,96,0.00,,,0.00,weatherlink.com 1.10,2013-06-19 05:39:00,
2013-06-19 01:55:00,59.2,58.0,29.81,South,169,0.0,0.0,96,0.00,,,0.00,weatherlink.com 1.10,2013-06-19 05:55:00,
2013-06-19 02:10:00,59.1,58.0,29.81,South,169,0.0,0.0,96,0.00,,,0.00,weatherlink.com 1.10,2013-06-19 06:10:00,
2013-06-19 02:25:00,59.0,58.0,29.81,South,169,0.0,0.0,95,0.00,,,0.00,weatherlink.com 1.10,2013-06-19 06:25:00,
2013-06-19 02:40:00,58.9,58.0,29.82,South,169,0.0,0.0,95,0.00,,,0.00,weatherlink.com 1.10,2013-06-19 06:40:00,
2013-06-19 02:55:00,58.6,57.0,29.81,South,169,0.0,0.0,95,0.00,,,0.00,weatherlink.com 1.10,2013-06-19 06:55:00,
2013-06-19 03:11:00,57.9,57.0,29.81,South,169,0.0,0.0,95,0.00,,,0.00,weatherlink.com 1.10,2013-06-19 07:11:00,
2013-06-19 03:25:00,57.6,56.0,29.81,South,169,0.0,1.0,95,0.00,,,0.00,weatherlink.com 1.10,2013-06-19 07:25:00,
2013-06-19 03:40:00,57.3,56.0,29.81,South,169,0.0,0.0,96,0.00,,,0.00,weatherlink.com 1.10,2013-06-19 07:40:00,
2013-06-19 03:55:00,57.7,57.0,29.81,NE,39,1.0,3.0,97,0.00,,,0.00,weatherlink.com 1.10,2013-06-19 07:55:00,
2013-06-19 04:10:00,57.9,57.0,29.81,North,355,3.0,3.0,96,0.00,,,0.00,weatherlink.com 1.10,2013-06-19 08:10:00,
2013-06-19 04:25:00,57.8,57.0,29.82,NNW,341,3.0,3.0,96,0.00,,,0.00,weatherlink.com 1.10,2013-06-19 08:25:00,
2013-06-19 04:40:00,57.5,56.0,29.82,NNW,346,2.0,3.0,95,0.00,,,0.00,weatherlink.com 1.10,2013-06-19 08:40:00,
2013-06-19 04:55:00,57.1,56.0,29.82,North,355,1.0,4.0,95,0.00,,,0.00,weatherlink.com 1.10,2013-06-19 08:55:00,
2013-06-19 05:10:00,56.6,55.0,29.83,NNW,345,0.0,5.0,95,0.00,,,0.00,weatherlink.com 1.10,2013-06-19 09:10:00,
2013-06-19 05:25:00,56.3,55.0,29.83,North,11,1.0,4.0,95,0.01,,,0.01,weatherlink.com 1.10,2013-06-19 09:25:00,
2013-06-19 05:40:00,56.0,54.0,29.83,North,355,0.0,5.0,94,0.01,,,0.01,weatherlink.com 1.10,2013-06-19 09:40:00,
2013-06-19 05:55:00,56.1,54.0,29.83,North,355,1.0,5.0,94,0.01,,,0.01,weatherlink.com 1.10,2013-06-19 09:55:00,
2013-06-19 06:10:00,56.6,55.0,29.83,NNW,347,1.0,3.0,93,0.01,,,0.01,weatherlink.com 1.10,2013-06-19 10:10:00,
2013-06-19 06:25:00,57.4,55.0,29.84,NW,324,0.0,6.0,91,0.00,,,0.01,weatherlink.com 1.10,2013-06-19 10:25:00,
2013-06-19 06:40:00,58.7,55.0,29.84,North,355,3.0,8.0,88,0.00,,,0.01,weatherlink.com 1.10,2013-06-19 10:40:00,
2013-06-19 06:55:00,59.6,55.0,29.85,North,5,2.0,6.0,85,0.00,,,0.01,weatherlink.com 1.10,2013-06-19 10:55:00,
2013-06-19 07:10:00,59.9,55.0,29.85,North,360,4.0,6.0,83,0.00,,,0.01,weatherlink.com 1.10,2013-06-19 11:10:00,
2013-06-19 07:25:00,60.9,55.0,29.86,North,355,6.0,10.0,81,0.00,,,0.01,weatherlink.com 1.10,2013-06-19 11:25:00,
2013-06-19 07:40:00,62.6,56.0,29.86,NNE,30,5.0,8.0,78,0.00,,,0.01,weatherlink.com 1.10,2013-06-19 11:40:00,
2013-06-19 07:55:00,63.8,56.0,29.86,NNW,330,8.0,8.0,75,0.00,,,0.01,weatherlink.com 1.10,2013-06-19 11:55:00,
2013-06-19 08:10:00,65.0,57.0,29.87,NW,326,5.0,8.0,75,0.00,,,0.01,weatherlink.com 1.10,2013-06-19 12:10:00,
2013-06-19 08:25:00,66.3,56.0,29.87,NE,56,4.0,7.0,70,0.00,,,0.01,weatherlink.com 1.10,2013-06-19 12:25:00,
2013-06-19 08:40:00,67.0,57.0,29.88,North,5,1.0,6.0,70,0.00,,,0.01,weatherlink.com 1.10,2013-06-19 12:40:00,
2013-06-19 08:55:00,69.0,57.0,29.88,NNE,22,4.0,6.0,66,0.00,,,0.01,weatherlink.com 1.10,2013-06-19 12:55:00,
2013-06-19 09:11:00,71.1,56.0,29.88,WNW,303,3.0,6.0,60,0.00,,,0.01,weatherlink.com 1.10,2013-06-19 13:11:00,
2013-06-19 09:26:00,72.7,56.0,29.88,NNE,32,2.0,8.0,56,0.00,,,0.01,weatherlink.com 1.10,2013-06-19 13:26:00,
2013-06-19 09:41:00,72.9,54.0,29.89,North,9,2.0,9.0,52,0.00,,,0.01,weatherlink.com 1.10,2013-06-19 13:41:00,
2013-06-19 09:56:00,74.1,55.0,29.89,North,9,4.0,9.0,51,0.00,,,0.01,weatherlink.com 1.10,2013-06-19 13:56:00,
2013-06-19 10:11:00,75.0,54.0,29.89,NNW,344,3.0,8.0,48,0.00,,,0.01,weatherlink.com 1.10,2013-06-19 14:11:00,
2013-06-19 10:26:00,75.8,58.0,29.90,North,5,1.0,6.0,55,0.00,,,0.01,weatherlink.com 1.10,2013-06-19 14:26:00,
2013-06-19 10:41:00,76.2,54.0,29.90,NW,312,2.0,6.0,47,0.00,,,0.01,weatherlink.com 1.10,2013-06-19 14:41:00,
2013-06-19 10:56:00,77.1,55.0,29.90,NNE,22,0.0,7.0,46,0.00,,,0.01,weatherlink.com 1.10,2013-06-19 14:56:00,
2013-06-19 11:11:00,77.5,54.0,29.91,North,5,3.0,9.0,45,0.00,,,0.01,weatherlink.com 1.10,2013-06-19 15:11:00,
2013-06-19 11:26:00,78.1,52.0,29.90,NE,45,1.0,8.0,41,0.00,,,0.01,weatherlink.com 1.10,2013-06-19 15:26:00,
2013-06-19 11:41:00,77.2,52.0,29.90,NE,44,3.0,8.0,42,0.00,,,0.01,weatherlink.com 1.10,2013-06-19 15:41:00,
2013-06-19 11:56:00,77.4,52.0,29.90,North,355,5.0,8.0,42,0.00,,,0.01,weatherlink.com 1.10,2013-06-19 15:56:00,
2013-06-19 12:11:00,77.8,51.0,29.90,NNW,334,3.0,8.0,39,0.00,,,0.01,weatherlink.com 1.10,2013-06-19 16:11:00,
2013-06-19 12:26:00,76.8,53.0,29.90,NNE,32,2.0,9.0,43,0.00,,,0.01,weatherlink.com 1.10,2013-06-19 16:26:00,
2013-06-19 12:41:00,76.9,51.0,29.90,North,349,3.0,10.0,41,0.00,,,0.01,weatherlink.com 1.10,2013-06-19 16:41:00,
2013-06-19 12:56:00,77.3,54.0,29.89,North,5,3.0,6.0,44,0.00,,,0.01,weatherlink.com 1.10,2013-06-19 16:56:00,
2013-06-19 13:11:00,75.9,52.0,29.90,NNW,329,2.0,7.0,44,0.00,,,0.01,weatherlink.com 1.10,2013-06-19 17:11:00,
2013-06-19 13:26:00,76.4,53.0,29.90,East,92,1.0,8.0,44,0.00,,,0.01,weatherlink.com 1.10,2013-06-19 17:26:00,
2013-06-19 13:41:00,78.3,53.0,29.89,ENE,57,4.0,7.0,42,0.00,,,0.01,weatherlink.com 1.10,2013-06-19 17:41:00,
2013-06-19 13:56:00,76.7,53.0,29.89,NE,36,2.0,8.0,44,0.00,,,0.01,weatherlink.com 1.10,2013-06-19 17:56:00,
2013-06-19 14:11:00,76.5,52.0,29.89,North,5,5.0,9.0,42,0.00,,,0.01,weatherlink.com 1.10,2013-06-19 18:11:00,
2013-06-19 14:26:00,77.8,51.0,29.90,NNW,346,0.0,9.0,39,0.00,,,0.01,weatherlink.com 1.10,2013-06-19 18:26:00,
2013-06-19 14:41:00,76.9,51.0,29.90,SSW,204,6.0,8.0,40,0.01,,,0.02,weatherlink.com 1.10,2013-06-19 18:41:00,
2013-06-19 14:56:00,78.7,50.0,29.90,ESE,109,2.0,9.0,36,0.01,,,0.02,weatherlink.com 1.10,2013-06-19 18:56:00,
2013-06-19 15:11:00,78.3,50.0,29.90,North,360,2.0,7.0,37,0.01,,,0.02,weatherlink.com 1.10,2013-06-19 19:11:00,
2013-06-19 15:26:00,76.5,47.0,29.90,North,355,6.0,12.0,35,0.00,,,0.02,weatherlink.com 1.10,2013-06-19 19:26:00,
2013-06-19 15:41:00,78.0,48.0,29.90,West,259,3.0,10.0,35,0.00,,,0.02,weatherlink.com 1.10,2013-06-19 19:41:00,
2013-06-19 15:56:00,78.2,48.0,29.91,West,276,3.0,7.0,34,0.00,,,0.02,weatherlink.com 1.10,2013-06-19 19:56:00,
2013-06-19 16:11:00,78.5,49.0,29.90,NNW,344,3.0,5.0,35,0.00,,,0.02,weatherlink.com 1.10,2013-06-19 20:11:00,
2013-06-19 16:26:00,77.5,50.0,29.91,North,355,0.0,5.0,38,0.00,,,0.02,weatherlink.com 1.10,2013-06-19 20:26:00,
2013-06-19 16:41:00,77.1,48.0,29.91,North,355,5.0,7.0,36,0.00,,,0.02,weatherlink.com 1.10,2013-06-19 20:41:00,
2013-06-19 16:56:00,76.1,46.0,29.91,NNW,333,2.0,7.0,35,0.00,,,0.02,weatherlink.com 1.10,2013-06-19 20:56:00,
2013-06-19 17:12:00,75.2,45.0,29.90,North,5,6.0,11.0,34,0.00,,,0.02,weatherlink.com 1.10,2013-06-19 21:12:00,
2013-06-19 17:27:00,74.4,46.0,29.90,WSW,246,3.0,8.0,36,0.00,,,0.02,weatherlink.com 1.10,2013-06-19 21:27:00,
2013-06-19 17:42:00,73.9,44.0,29.90,NNW,341,0.0,8.0,34,0.00,,,0.02,weatherlink.com 1.10,2013-06-19 21:42:00,
2013-06-19 17:57:00,73.4,43.0,29.91,North,355,1.0,7.0,34,0.00,,,0.02,weatherlink.com 1.10,2013-06-19 21:57:00,
2013-06-19 18:12:00,72.5,47.0,29.91,North,5,1.0,8.0,41,0.00,,,0.02,weatherlink.com 1.10,2013-06-19 22:12:00,
2013-06-19 18:27:00,70.7,47.0,29.92,North,360,1.0,7.0,43,0.00,,,0.02,weatherlink.com 1.10,2013-06-19 22:27:00,
2013-06-19 18:42:00,69.0,49.0,29.93,SW,221,2.0,5.0,50,0.00,,,0.02,weatherlink.com 1.10,2013-06-19 22:42:00,
2013-06-19 18:57:00,68.0,47.0,29.93,NW,325,0.0,2.0,47,0.00,,,0.02,weatherlink.com 1.10,2013-06-19 22:57:00,
2013-06-19 19:12:00,67.6,48.0,29.93,North,355,0.0,3.0,50,0.00,,,0.02,weatherlink.com 1.10,2013-06-19 23:12:00,
2013-06-19 19:27:00,67.2,48.0,29.93,North,355,0.0,5.0,51,0.00,,,0.02,weatherlink.com 1.10,2013-06-19 23:27:00,
2013-06-19 19:42:00,66.5,49.0,29.94,NNW,333,0.0,1.0,53,0.00,,,0.02,weatherlink.com 1.10,2013-06-19 23:42:00,
2013-06-19 19:57:00,65.8,52.0,29.94,NNW,333,0.0,0.0,61,0.00,,,0.02,weatherlink.com 1.10,2013-06-19 23:57:00,
2013-06-19 20:12:00,64.9,53.0,29.95,NNW,333,0.0,0.0,65,0.00,,,0.02,weatherlink.com 1.10,2013-06-20 00:12:00,
2013-06-19 20:27:00,64.1,55.0,29.95,NNW,333,0.0,0.0,71,0.00,,,0.02,weatherlink.com 1.10,2013-06-20 00:27:00,
2013-06-19 20:42:00,63.1,55.0,29.96,NNW,333,0.0,0.0,76,0.00,,,0.02,weatherlink.com 1.10,2013-06-20 00:42:00,
2013-06-19 20:57:00,62.2,55.0,29.97,NNW,333,0.0,0.0,78,0.00,,,0.02,weatherlink.com 1.10,2013-06-20 00:57:00,
2013-06-19 21:12:00,61.2,55.0,29.98,NNW,333,0.0,0.0,79,0.00,,,0.02,weatherlink.com 1.10,2013-06-20 01:12:00,
2013-06-19 21:42:00,59.3,52.0,29.99,NNW,333,0.0,0.0,78,0.00,,,0.02,weatherlink.com 1.10,2013-06-20 01:42:00,
2013-06-19 21:57:00,58.5,53.0,30.00,NNW,333,0.0,0.0,83,0.00,,,0.02,weatherlink.com 1.10,2013-06-20 01:57:00,
2013-06-19 22:12:00,57.9,53.0,30.00,NNW,333,0.0,1.0,83,0.00,,,0.02,weatherlink.com 1.10,2013-06-20 02:12:00,
2013-06-19 22:27:00,57.5,53.0,30.01,NNW,333,0.0,1.0,85,0.00,,,0.02,weatherlink.com 1.10,2013-06-20 02:27:00,
2013-06-19 22:42:00,57.0,53.0,30.01,NNW,333,0.0,0.0,87,0.00,,,0.02,weatherlink.com 1.10,2013-06-20 02:42:00,
2013-06-19 22:57:00,56.5,53.0,30.02,North,355,0.0,2.0,87,0.00,,,0.02,weatherlink.com 1.10,2013-06-20 02:57:00,
2013-06-19 23:12:00,55.9,52.0,30.02,North,355,0.0,1.0,88,0.01,,,0.03,weatherlink.com 1.10,2013-06-20 03:12:00,
2013-06-19 23:27:00,55.8,53.0,30.02,North,355,0.0,0.0,89,0.01,,,0.03,weatherlink.com 1.10,2013-06-20 03:27:00,
2013-06-19 23:42:00,55.4,52.0,30.03,North,355,0.0,0.0,89,0.01,,,0.03,weatherlink.com 1.10,2013-06-20 03:42:00,
2013-06-19 23:57:00,55.0,52.0,30.04,North,355,0.0,0.0,90,0.01,,,0.03,weatherlink.com 1.10,2013-06-20 03:57:00,